createdAt,value
2018-04-25T00:02:22.450Z,22.57
2018-04-25T00:04:50.861Z,29.57
2018-04-25T00:07:19.339Z,26.30
2018-04-25T00:09:48.053Z,25.93
2018-04-25T00:12:17.114Z,25.00
2018-04-25T00:14:46.054Z,24.03
2018-04-25T00:17:15.005Z,22.60
2018-04-25T00:19:43.559Z,26.50
2018-04-25T00:22:12.152Z,26.80
2018-04-25T00:24:40.703Z,22.33
2018-04-25T00:27:09.263Z,23.87
2018-04-25T00:29:38.116Z,25.07
2018-04-25T00:32:06.264Z,23.67
2018-04-25T00:34:34.852Z,28.20
2018-04-25T00:37:03.407Z,24.60
2018-04-25T00:39:32.135Z,24.30
2018-04-25T00:42:00.795Z,24.73
2018-04-25T00:44:30.472Z,27.63
2018-04-25T00:46:58.941Z,25.73
2018-04-25T00:49:27.358Z,31.43
2018-04-25T00:51:55.823Z,26.87
2018-04-25T00:54:24.339Z,23.60
2018-04-25T00:56:53.152Z,22.90
2018-04-25T00:59:21.963Z,23.30
2018-04-25T01:01:50.678Z,22.00
2018-04-25T01:04:19.446Z,23.47
2018-04-25T01:06:48.840Z,25.73
2018-04-25T01:09:20.147Z,26.93
2018-04-25T01:11:48.890Z,21.73
2018-04-25T01:14:17.338Z,29.77
2018-04-25T01:16:46.059Z,25.17
2018-04-25T01:19:14.484Z,26.70
2018-04-25T01:21:44.039Z,26.53
2018-04-25T01:24:12.495Z,27.50
2018-04-25T01:26:41.339Z,23.90
2018-04-25T01:29:09.895Z,23.97
2018-04-25T01:31:38.566Z,26.37
2018-04-25T01:34:07.455Z,28.37
2018-04-25T01:36:36.136Z,25.63
2018-04-25T01:39:05.338Z,29.03
2018-04-25T01:41:33.809Z,27.77
2018-04-25T01:44:02.363Z,24.93
2018-04-25T01:46:31.379Z,25.50
2018-04-25T01:49:00.427Z,25.10
2018-04-25T01:51:40.140Z,25.00
2018-04-25T01:55:22.467Z,26.10
2018-04-25T01:58:02.035Z,28.97
2018-04-25T02:00:41.582Z,22.83
2018-04-25T02:03:09.059Z,25.27
2018-04-25T02:05:37.888Z,27.90
2018-04-25T02:08:06.498Z,30.10
2018-04-25T02:10:35.262Z,33.00
2018-04-25T02:13:03.959Z,27.70
2018-04-25T02:15:32.619Z,31.80
2018-04-25T02:18:01.464Z,31.00
2018-04-25T02:20:30.109Z,27.67
2018-04-25T02:22:58.641Z,31.53
2018-04-25T02:25:27.099Z,31.60
2018-04-25T02:27:55.582Z,31.10
2018-04-25T02:30:24.383Z,30.27
2018-04-25T02:32:52.872Z,30.87
2018-04-25T02:36:24.510Z,29.27
2018-04-25T02:38:53.027Z,24.77
2018-04-25T02:41:21.576Z,25.40
2018-04-25T02:43:50.148Z,26.17
2018-04-25T02:46:18.607Z,23.70
2018-04-25T02:48:47.041Z,26.00
2018-04-25T02:51:15.841Z,23.37
2018-04-25T02:53:44.470Z,28.03
2018-04-25T02:56:13.460Z,25.70
2018-04-25T02:58:42.105Z,25.80
2018-04-25T03:01:10.599Z,24.57
2018-04-25T03:03:39.246Z,24.20
2018-04-25T03:06:07.781Z,26.17
2018-04-25T03:08:36.377Z,24.53
2018-04-25T03:11:05.010Z,24.97
2018-04-25T03:13:33.555Z,29.37
2018-04-25T03:16:02.558Z,28.13
2018-04-25T03:18:31.167Z,23.40
2018-04-25T03:20:59.662Z,27.00
2018-04-25T03:23:28.291Z,27.37
2018-04-25T03:25:56.690Z,27.40
2018-04-25T03:28:25.282Z,25.20
2018-04-25T03:30:54.243Z,24.17
2018-04-25T03:33:22.734Z,25.00
2018-04-25T03:35:51.371Z,26.03
2018-04-25T03:38:20.057Z,28.90
2018-04-25T03:40:48.875Z,29.30
2018-04-25T03:43:17.426Z,24.80
2018-04-25T03:45:46.550Z,26.67
2018-04-25T03:48:15.153Z,28.43
2018-04-25T03:50:43.916Z,26.23
2018-04-25T03:53:12.552Z,28.07
2018-04-25T03:55:41.647Z,25.57
2018-04-25T03:58:10.104Z,24.20
2018-04-25T04:03:35.227Z,21.43
2018-04-25T04:06:03.794Z,21.80
2018-04-25T04:08:32.044Z,34.83
2018-04-25T04:11:00.357Z,21.10
2018-04-25T04:13:28.599Z,24.67
2018-04-25T04:15:57.119Z,22.57
2018-04-25T04:18:25.565Z,24.30
2018-04-25T04:20:53.897Z,24.83
2018-04-25T04:23:22.157Z,24.73
2018-04-25T04:25:51.044Z,22.60
2018-04-25T04:28:19.586Z,23.90
2018-04-25T04:30:47.911Z,31.47
2018-04-25T04:33:16.194Z,25.70
2018-04-25T04:35:44.831Z,34.60
2018-04-25T04:38:13.210Z,24.03
2018-04-25T04:40:41.640Z,26.97
2018-04-25T04:43:09.940Z,26.10
2018-04-25T04:45:38.277Z,23.10
2018-04-25T04:48:06.572Z,19.20
2018-04-25T04:50:35.128Z,23.23
2018-04-25T04:53:03.395Z,26.63
2018-04-25T04:55:31.724Z,20.17
2018-04-25T04:58:00.032Z,21.20
2018-04-25T05:00:28.410Z,32.90
2018-04-25T05:02:56.676Z,25.67
2018-04-25T05:05:24.945Z,20.77
2018-04-25T05:07:53.314Z,22.20
2018-04-25T05:10:21.583Z,21.13
2018-04-25T05:12:49.855Z,24.57
2018-04-25T05:15:18.171Z,21.03
2018-04-25T05:17:46.667Z,20.60
2018-04-25T05:20:14.947Z,18.10
2018-04-25T05:22:43.191Z,21.80
2018-04-25T05:25:11.491Z,20.10
2018-04-25T05:27:39.754Z,17.50
2018-04-25T05:30:08.044Z,16.27
2018-04-25T05:32:36.490Z,18.73
2018-04-25T05:35:04.769Z,20.53
2018-04-25T05:37:33.025Z,23.40
2018-04-25T05:40:01.277Z,16.67
2018-04-25T05:42:29.596Z,22.70
2018-04-25T05:44:57.857Z,19.13
2018-04-25T05:47:26.186Z,23.57
2018-04-25T05:49:54.454Z,22.03
2018-04-25T05:52:22.750Z,16.73
2018-04-25T05:54:51.006Z,16.90
2018-04-25T05:57:19.505Z,18.60
2018-04-25T05:59:47.761Z,18.17
2018-04-25T06:02:16.261Z,24.03
2018-04-25T06:04:45.055Z,27.13
2018-04-25T06:07:13.377Z,17.33
2018-04-25T06:09:41.623Z,19.60
2018-04-25T06:12:10.578Z,18.40
2018-04-25T06:14:39.520Z,18.20
2018-04-25T06:17:07.888Z,21.87
2018-04-25T06:19:36.159Z,16.50
2018-04-25T06:22:04.639Z,15.13
2018-04-25T06:24:32.958Z,17.20
2018-04-25T06:27:01.304Z,16.80
2018-04-25T06:29:30.024Z,20.00
2018-04-25T06:31:59.979Z,20.83
2018-04-25T06:35:34.763Z,17.33
2018-04-25T06:38:03.787Z,14.27
2018-04-25T06:40:33.475Z,21.30
2018-04-25T06:43:01.802Z,12.27
2018-04-25T06:45:30.119Z,15.83
2018-04-25T06:47:58.615Z,10.73
2018-04-25T06:50:27.431Z,13.70
2018-04-25T06:52:55.683Z,11.40
2018-04-25T06:55:23.969Z,10.87
2018-04-25T06:57:52.238Z,12.30
2018-04-25T07:00:20.528Z,14.63
2018-04-25T07:02:49.087Z,15.87
2018-04-25T07:05:17.406Z,11.87
2018-04-25T07:07:45.669Z,10.47
2018-04-25T07:10:16.161Z,13.33
2018-04-25T07:12:44.403Z,9.50
2018-04-25T07:15:12.758Z,9.73
2018-04-25T07:17:41.039Z,11.20
2018-04-25T07:20:09.495Z,30.07
2018-04-25T07:22:37.746Z,9.90
2018-04-25T07:25:06.030Z,13.87
2018-04-25T07:27:34.283Z,11.47
2018-04-25T07:30:03.457Z,17.17
2018-04-25T07:32:31.883Z,14.50
2018-04-25T07:35:00.111Z,11.07
2018-04-25T07:37:28.417Z,20.63
2018-04-25T07:39:56.659Z,9.17
2018-04-25T07:42:25.461Z,18.33
2018-04-25T07:44:53.797Z,10.37
2018-04-25T07:47:22.152Z,13.33
2018-04-25T07:49:50.542Z,11.53
2018-04-25T07:52:18.978Z,15.97
2018-04-25T07:54:47.411Z,9.93
2018-04-25T07:57:15.902Z,33.50
2018-04-25T07:59:44.168Z,14.17
2018-04-25T08:02:15.491Z,12.43
2018-04-25T08:04:45.533Z,18.63
2018-04-25T08:07:14.403Z,13.73
2018-04-25T08:09:42.703Z,9.30
2018-04-25T08:12:19.964Z,10.23
2018-04-25T08:15:56.819Z,9.40
2018-04-25T08:18:38.372Z,10.07
2018-04-25T08:21:13.264Z,8.03
2018-04-25T08:23:41.715Z,11.53
2018-04-25T08:26:09.958Z,12.83
2018-04-25T08:28:38.247Z,12.60
2018-04-25T08:31:06.549Z,6.33
2018-04-25T08:33:34.889Z,8.30
2018-04-25T08:36:03.323Z,23.27
2018-04-25T08:38:31.591Z,10.47
2018-04-25T08:41:00.040Z,8.77
2018-04-25T08:43:28.568Z,16.73
2018-04-25T08:45:56.884Z,13.57
2018-04-25T08:48:25.427Z,21.47
2018-04-25T08:50:55.082Z,8.50
2018-04-25T08:53:25.774Z,10.77
2018-04-25T08:55:54.829Z,14.80
2018-04-25T08:58:23.067Z,9.07
2018-04-25T09:00:51.430Z,9.43
2018-04-25T09:03:19.723Z,10.83
2018-04-25T09:05:48.099Z,11.30
2018-04-25T09:08:16.374Z,10.80
2018-04-25T09:10:44.863Z,10.40
2018-04-25T09:13:13.469Z,11.27
2018-04-25T09:15:41.831Z,10.10
2018-04-25T09:18:10.100Z,10.80
2018-04-25T09:20:38.419Z,21.13
2018-04-25T09:23:06.691Z,9.50
2018-04-25T09:25:35.154Z,15.80
2018-04-25T09:28:03.791Z,11.93
2018-04-25T09:30:32.312Z,9.03
2018-04-25T09:33:00.766Z,8.50
2018-04-25T09:35:29.109Z,13.03
2018-04-25T09:37:57.383Z,13.50
2018-04-25T09:40:25.687Z,10.37
2018-04-25T09:42:53.947Z,13.77
2018-04-25T09:45:22.849Z,14.57
2018-04-25T09:47:51.929Z,15.40
2018-04-25T09:50:20.319Z,11.93
2018-04-25T09:52:48.635Z,8.10
2018-04-25T09:55:16.953Z,7.90
2018-04-25T09:57:45.332Z,8.23
2018-04-25T10:00:13.669Z,10.27
2018-04-25T10:02:42.403Z,12.40
2018-04-25T10:05:10.731Z,18.83
2018-04-25T10:07:39.038Z,15.67
2018-04-25T10:10:07.828Z,12.27
2018-04-25T10:12:36.281Z,10.03
2018-04-25T10:15:04.943Z,13.23
2018-04-25T10:17:33.683Z,9.20
2018-04-25T10:20:01.972Z,12.13
2018-04-25T10:22:30.415Z,15.30
2018-04-25T10:24:58.690Z,18.30
2018-04-25T10:27:27.161Z,17.87
2018-04-25T10:29:55.487Z,8.97
2018-04-25T10:32:23.791Z,9.20
2018-04-25T10:34:52.203Z,10.13
2018-04-25T10:37:20.671Z,11.37
2018-04-25T10:39:48.933Z,8.33
2018-04-25T10:42:17.223Z,7.77
2018-04-25T10:44:45.763Z,11.27
2018-04-25T10:47:14.077Z,21.63
2018-04-25T10:49:42.338Z,16.80
2018-04-25T10:52:10.672Z,8.17
2018-04-25T10:54:38.943Z,11.20
2018-04-25T10:57:07.248Z,13.67
2018-04-25T10:59:36.463Z,10.53
2018-04-25T11:02:05.279Z,10.13
2018-04-25T11:04:33.594Z,10.83
2018-04-25T11:07:01.876Z,12.10
2018-04-25T11:09:30.282Z,13.13
2018-04-25T11:11:59.134Z,21.07
2018-04-25T11:14:29.016Z,17.93
2018-04-25T11:16:58.961Z,12.17
2018-04-25T11:19:28.131Z,15.17
2018-04-25T11:21:57.063Z,10.37
2018-04-25T11:24:25.820Z,14.23
2018-04-25T11:26:54.131Z,13.37
2018-04-25T11:29:22.748Z,21.33
2018-04-25T11:31:51.155Z,5.97
2018-04-25T11:34:19.413Z,12.60
2018-04-25T11:36:48.268Z,5.77
2018-04-25T11:39:17.140Z,6.87
2018-04-25T11:41:45.479Z,4.43
2018-04-25T11:44:13.755Z,6.10
2018-04-25T11:46:42.447Z,5.33
2018-04-25T11:49:10.727Z,5.87
2018-04-25T11:51:39.018Z,4.60
2018-04-25T11:54:07.429Z,6.20
2018-04-25T11:56:35.768Z,5.83
2018-04-25T11:59:04.583Z,5.33
2018-04-25T12:01:32.926Z,10.90
2018-04-25T12:04:01.344Z,4.70
2018-04-25T12:06:29.864Z,7.73
2018-04-25T12:08:58.131Z,5.63
2018-04-25T12:11:26.454Z,5.53
2018-04-25T12:13:54.781Z,8.97
2018-04-25T12:16:23.189Z,7.67
2018-04-25T12:18:51.546Z,1.93
2018-04-25T12:21:19.859Z,3.47
2018-04-25T12:23:50.683Z,2.93
2018-04-25T12:26:30.474Z,3.50
2018-04-25T12:28:59.635Z,3.97
2018-04-25T12:31:33.199Z,3.17
2018-04-25T12:34:03.563Z,16.13
2018-04-25T12:36:34.385Z,3.30
2018-04-25T12:39:04.045Z,6.73
2018-04-25T12:41:35.909Z,5.13
2018-04-25T12:44:04.522Z,8.93
2018-04-25T12:46:32.842Z,7.63
2018-04-25T12:49:01.087Z,7.93
2018-04-25T12:51:29.382Z,23.40
2018-04-25T12:53:57.653Z,7.63
2018-04-25T12:56:25.963Z,5.47
2018-04-25T12:58:54.267Z,14.80
2018-04-25T13:01:22.571Z,7.20
2018-04-25T13:03:50.832Z,7.70
2018-04-25T13:06:19.095Z,5.87
2018-04-25T13:08:47.379Z,5.80
2018-04-25T13:11:15.664Z,19.67
2018-04-25T13:13:44.318Z,12.90
2018-04-25T13:16:12.873Z,6.27
2018-04-25T13:18:41.131Z,9.80
2018-04-25T13:21:09.427Z,11.90
2018-04-25T13:23:41.100Z,7.43
2018-04-25T13:26:12.518Z,9.80
2018-04-25T13:28:46.275Z,12.83
2018-04-25T13:31:14.647Z,10.20
2018-04-25T13:33:43.029Z,7.97
2018-04-25T13:36:11.388Z,11.80
2018-04-25T13:38:39.983Z,1.83
2018-04-25T13:41:08.623Z,5.20
2018-04-25T13:43:36.882Z,6.03
2018-04-25T13:46:07.094Z,9.87
2018-04-25T13:48:37.179Z,11.37
2018-04-25T13:51:06.470Z,9.80
2018-04-25T13:53:34.890Z,9.70
2018-04-25T13:56:03.198Z,7.80
2018-04-25T13:58:32.349Z,6.43
2018-04-25T14:01:00.659Z,1.77
2018-04-25T14:03:30.227Z,11.83
2018-04-25T14:05:59.415Z,7.30
2018-04-25T14:08:27.686Z,8.43
2018-04-25T14:10:56.047Z,7.40
2018-04-25T14:13:24.469Z,4.70
2018-04-25T14:15:53.974Z,16.40
2018-04-25T14:18:23.088Z,6.80
2018-04-25T14:20:51.566Z,6.33
2018-04-25T14:23:19.834Z,7.87
2018-04-25T14:25:48.147Z,7.20
2018-04-25T14:28:16.452Z,6.63
2018-04-25T14:30:44.796Z,8.80
2018-04-25T14:33:13.071Z,11.83
2018-04-25T14:35:41.352Z,4.03
2018-04-25T14:38:09.635Z,8.43
2018-04-25T14:40:37.994Z,9.33
2018-04-25T14:43:06.293Z,5.80
2018-04-25T14:45:34.633Z,5.30
2018-04-25T14:48:02.965Z,17.97
2018-04-25T14:50:31.319Z,6.70
2018-04-25T14:52:59.597Z,11.20
2018-04-25T14:55:28.099Z,11.37
2018-04-25T14:57:56.658Z,4.23
2018-04-25T15:00:26.239Z,4.30
2018-04-25T15:02:55.011Z,5.53
2018-04-25T15:05:23.336Z,3.30
2018-04-25T15:07:51.712Z,6.03
2018-04-25T15:10:20.023Z,3.47
2018-04-25T15:12:48.284Z,2.40
2018-04-25T15:15:16.791Z,9.90
2018-04-25T15:17:45.166Z,2.40
2018-04-25T15:20:13.494Z,4.27
2018-04-25T15:22:42.077Z,1.67
2018-04-25T15:25:10.430Z,2.40
2018-04-25T15:27:38.851Z,6.47
2018-04-25T15:30:07.311Z,11.83
2018-04-25T15:32:35.617Z,6.20
2018-04-25T15:35:04.096Z,9.20
2018-04-25T15:37:32.857Z,3.20
2018-04-25T15:40:01.094Z,1.50
2018-04-25T15:42:29.407Z,3.10
2018-04-25T15:44:59.151Z,6.07
2018-04-25T15:47:29.107Z,3.73
2018-04-25T15:49:57.410Z,1.63
2018-04-25T15:52:25.899Z,7.87
2018-04-25T15:54:54.342Z,8.13
2018-04-25T15:57:22.724Z,3.70
2018-04-25T15:59:51.321Z,1.90
2018-04-25T16:02:19.810Z,2.77
2018-04-25T16:04:48.128Z,5.37
2018-04-25T16:07:16.579Z,1.87
2018-04-25T16:09:44.853Z,4.70
2018-04-25T16:12:13.389Z,9.87
2018-04-25T16:14:41.656Z,1.80
2018-04-25T16:17:10.138Z,1.50
2018-04-25T16:19:38.493Z,1.50
2018-04-25T16:22:06.841Z,4.07
2018-04-25T16:24:36.292Z,2.97
2018-04-25T16:27:04.625Z,1.20
2018-04-25T16:29:32.939Z,4.40
2018-04-25T16:32:01.424Z,3.13
2018-04-25T16:34:29.804Z,6.93
2018-04-25T16:36:58.130Z,9.20
2018-04-25T16:39:26.396Z,4.10
2018-04-25T16:41:54.736Z,3.10
2018-04-25T16:44:23.010Z,2.93
2018-04-25T16:46:51.383Z,3.03
2018-04-25T16:49:19.697Z,2.47
2018-04-25T16:51:48.090Z,3.10
2018-04-25T16:54:16.453Z,3.60
2018-04-25T16:56:44.771Z,3.43
2018-04-25T16:59:13.206Z,1.63
2018-04-25T17:01:41.510Z,2.37
2018-04-25T17:04:09.824Z,10.10
2018-04-25T17:06:38.190Z,2.23
2018-04-25T17:09:06.639Z,3.50
2018-04-25T17:11:34.989Z,2.77
2018-04-25T17:14:03.275Z,1.60
2018-04-25T17:16:34.472Z,6.53
2018-04-25T17:19:02.929Z,3.53
2018-04-25T17:21:31.231Z,2.57
2018-04-25T17:23:59.521Z,2.07
2018-04-25T17:26:27.824Z,1.40
2018-04-25T17:28:56.116Z,1.50
2018-04-25T17:31:24.811Z,3.23
2018-04-25T17:33:54.487Z,5.80
2018-04-25T17:36:23.238Z,1.43
2018-04-25T17:38:51.552Z,4.40
2018-04-25T17:41:19.871Z,1.47
2018-04-25T17:43:48.157Z,2.30
2018-04-25T17:46:16.770Z,2.13
2018-04-25T17:48:45.283Z,1.83
2018-04-25T17:51:13.682Z,1.60
2018-04-25T17:53:41.926Z,3.30
2018-04-25T17:56:10.676Z,4.57
2018-04-25T17:58:39.353Z,1.93
2018-04-25T18:01:07.928Z,1.57
2018-04-25T18:03:36.458Z,3.07
2018-04-25T18:06:04.935Z,4.53
2018-04-25T18:08:33.908Z,3.63
2018-04-25T18:11:02.267Z,1.30
2018-04-25T18:13:30.551Z,2.30
2018-04-25T18:15:58.843Z,3.30
2018-04-25T18:18:27.112Z,2.33
2018-04-25T18:20:55.486Z,5.90
2018-04-25T18:23:23.815Z,4.53
2018-04-25T18:25:52.463Z,6.10
2018-04-25T18:28:20.943Z,2.37
2018-04-25T18:30:49.226Z,7.23
2018-04-25T18:33:17.545Z,4.63
2018-04-25T18:35:45.834Z,4.20
2018-04-25T18:38:14.132Z,4.47
2018-04-25T18:40:42.430Z,7.43
2018-04-25T18:43:10.890Z,2.63
2018-04-25T18:45:39.242Z,5.23
2018-04-25T18:48:07.534Z,1.80
2018-04-25T18:50:36.353Z,2.90
2018-04-25T18:53:05.064Z,2.30
2018-04-25T18:55:33.434Z,1.93
2018-04-25T18:58:01.742Z,1.90
2018-04-25T19:00:30.027Z,2.87
2018-04-25T19:02:58.354Z,5.43
2018-04-25T19:05:26.666Z,1.87
2018-04-25T19:07:54.952Z,2.87
2018-04-25T19:10:23.322Z,2.73
2018-04-25T19:12:51.606Z,4.20
2018-04-25T19:15:20.115Z,2.70
2018-04-25T19:17:48.636Z,5.80
2018-04-25T19:20:17.001Z,4.27
2018-04-25T19:22:45.397Z,5.10
2018-04-25T19:25:13.663Z,3.27
2018-04-25T19:27:41.955Z,4.43
2018-04-25T19:30:10.280Z,3.53
2018-04-25T19:32:38.649Z,3.00
2018-04-25T19:35:07.358Z,3.60
2018-04-25T19:37:35.647Z,3.47
2018-04-25T19:40:04.194Z,2.40
2018-04-25T19:42:32.461Z,1.83
2018-04-25T19:45:01.039Z,1.67
2018-04-25T19:47:29.834Z,2.83
2018-04-25T19:49:58.228Z,5.80
2018-04-25T19:52:26.481Z,4.20
2018-04-25T19:54:54.714Z,3.83
2018-04-25T19:57:23.206Z,3.90
2018-04-25T19:59:51.411Z,2.73
2018-04-25T20:02:19.838Z,4.67
2018-04-25T20:04:48.127Z,4.23
2018-04-25T20:07:16.508Z,3.73
2018-04-25T20:09:44.898Z,4.30
2018-04-25T20:12:13.438Z,3.90
2018-04-25T20:14:41.859Z,3.90
2018-04-25T20:17:10.157Z,3.50
2018-04-25T20:19:38.410Z,4.17
2018-04-25T20:22:06.759Z,4.63
2018-04-25T20:24:35.127Z,3.90
2018-04-25T20:27:03.871Z,4.27
2018-04-25T20:29:32.385Z,4.67
2018-04-25T20:32:00.664Z,3.13
2018-04-25T20:34:28.998Z,2.80
2018-04-25T20:36:57.324Z,6.33
2018-04-25T20:39:25.600Z,5.70
2018-04-25T20:41:54.611Z,6.23
2018-04-25T20:44:22.892Z,7.13
2018-04-25T20:46:51.181Z,5.40
2018-04-25T20:49:19.578Z,4.13
2018-04-25T20:51:47.894Z,4.80
2018-04-25T20:54:16.337Z,5.87
2018-04-25T20:56:44.626Z,3.77
2018-04-25T20:59:12.896Z,6.70
2018-04-25T21:01:41.179Z,4.13
2018-04-25T21:04:09.540Z,4.03
2018-04-25T21:06:37.844Z,4.63
2018-04-25T21:09:06.191Z,3.53
2018-04-25T21:11:37.411Z,5.77
2018-04-25T21:14:05.884Z,3.00
2018-04-25T21:16:34.327Z,3.77
2018-04-25T21:19:02.767Z,4.03
2018-04-25T21:21:31.058Z,2.97
2018-04-25T21:23:59.401Z,5.20
2018-04-25T21:26:27.795Z,7.23
2018-04-25T21:28:56.395Z,3.13
2018-04-25T21:31:24.934Z,3.57
2018-04-25T21:33:53.235Z,5.47
2018-04-25T21:36:21.973Z,7.83
2018-04-25T21:38:50.254Z,4.23
2018-04-25T21:41:18.543Z,3.60
2018-04-25T21:43:46.803Z,8.73
2018-04-25T21:46:16.550Z,3.07
2018-04-25T21:48:44.853Z,3.63
2018-04-25T21:51:14.406Z,3.00
2018-04-25T21:53:42.942Z,4.03
2018-04-25T21:56:12.307Z,5.33
2018-04-25T21:58:41.975Z,3.30
2018-04-25T22:01:10.438Z,3.20
2018-04-25T22:03:40.700Z,4.43
2018-04-25T22:06:10.336Z,3.67
2018-04-25T22:08:38.738Z,5.93
2018-04-25T22:11:06.855Z,5.60
2018-04-25T22:13:35.474Z,3.60
2018-04-25T22:16:03.814Z,4.13
2018-04-25T22:18:32.064Z,4.47
2018-04-25T22:21:00.332Z,5.57
2018-04-25T22:23:28.598Z,6.87
2018-04-25T22:25:56.912Z,3.63
2018-04-25T22:28:25.186Z,3.50
2018-04-25T22:30:53.474Z,5.87
2018-04-25T22:33:21.788Z,7.70
2018-04-25T22:35:50.227Z,4.87
2018-04-25T22:38:18.506Z,6.43
2018-04-25T22:40:46.987Z,3.80
2018-04-25T22:43:15.263Z,7.03
2018-04-25T22:45:43.539Z,3.13
2018-04-25T22:48:11.798Z,3.90
2018-04-25T22:50:40.240Z,3.23
2018-04-25T22:53:08.545Z,3.63
2018-04-25T22:55:36.831Z,9.03
2018-04-25T22:58:05.223Z,4.80
2018-04-25T23:00:33.510Z,3.87
2018-04-25T23:03:01.773Z,3.93
2018-04-25T23:05:30.084Z,6.00
2018-04-25T23:07:58.431Z,3.90
2018-04-25T23:10:26.736Z,4.40
2018-04-25T23:12:55.175Z,3.70
2018-04-25T23:15:23.655Z,5.00
2018-04-25T23:17:53.298Z,4.27
2018-04-25T23:20:21.601Z,6.50
2018-04-25T23:22:49.888Z,4.40
2018-04-25T23:25:18.215Z,7.90
2018-04-25T23:27:46.459Z,10.77
2018-04-25T23:30:15.252Z,5.97
2018-04-25T23:32:44.813Z,4.20
2018-04-25T23:35:13.228Z,3.77
2018-04-25T23:37:41.490Z,3.30
2018-04-25T23:40:13.571Z,3.63
2018-04-25T23:42:48.719Z,4.03
2018-04-25T23:45:17.280Z,4.67
2018-04-25T23:47:45.547Z,4.83
2018-04-25T23:50:13.859Z,7.50
2018-04-25T23:52:42.138Z,5.70
2018-04-25T23:55:10.461Z,5.37
2018-04-25T23:57:38.778Z,11.03
